Time;durP1;ratioP1;P1;durP2;ratioP2;P2;SDS_P1;SDS_P2;PMS_P1;PMS_P2;Temp;Humidity;BMP_temperature;BMP_pressure;BME280_temperature;BME280_humidity;BME280_pressure;Samples;Min_cycle;Max_cycle;Signal;HPM_P1;HPM_P2
2021/12/26 00:01:30;;;;;;;1.30;1.30;;;;;;;-3.38;57.07;100409.16;6025357;29;20246;-77
2021/12/26 00:04:35;;;;;;;1.23;1.23;;;;;;;-3.74;58.21;100430.00;6024355;29;20386;-77
2021/12/26 00:07:40;;;;;;;2.13;1.43;;;;;;;-3.31;56.61;100420.94;6025295;29;20192;-77
2021/12/26 00:10:47;;;;;;;1.50;1.40;;;;;;;-3.38;56.67;100425.25;6024975;29;20235;-77
2021/12/26 00:13:53;;;;;;;2.30;1.50;;;;;;;-3.49;57.29;100439.81;6024597;29;20245;-77
2021/12/26 00:16:57;;;;;;;1.40;1.23;;;;;;;-3.61;57.61;100434.91;6024935;29;20203;-77
2021/12/26 00:20:01;;;;;;;1.00;1.00;;;;;;;-3.55;56.92;100450.38;6024803;29;20251;-77
2021/12/26 00:23:08;;;;;;;1.13;1.13;;;;;;;-3.55;56.83;100450.38;6025482;29;20200;-77
2021/12/26 00:26:15;;;;;;;1.77;1.23;;;;;;;-3.40;56.73;100459.50;6025093;29;20200;-77
2021/12/26 00:29:19;;;;;;;1.23;1.23;;;;;;;-3.47;56.70;100463.84;6024110;29;20257;-77
2021/12/26 00:32:24;;;;;;;2.83;1.47;;;;;;;-3.42;56.66;100461.50;6024029;29;20478;-77
2021/12/26 00:35:29;;;;;;;1.30;1.30;;;;;;;-3.50;56.28;100474.88;6008795;29;20212;-77
2021/12/26 00:38:33;;;;;;;5.03;2.50;;;;;;;-3.17;56.16;100471.31;6009272;29;20300;-77
2021/12/26 00:41:39;;;;;;;1.30;1.30;;;;;;;-3.62;56.45;100470.81;6008095;29;20244;-77
2021/12/26 00:44:44;;;;;;;2.13;1.37;;;;;;;-3.85;57.33;100470.53;6008370;29;20215;-77
2021/12/26 00:47:48;;;;;;;2.53;1.37;;;;;;;-3.61;56.74;100477.84;6024799;29;20321;-77
2021/12/26 00:50:53;;;;;;;1.40;1.30;;;;;;;-3.75;57.43;100482.00;6023502;29;20585;-77
2021/12/26 00:53:58;;;;;;;2.03;1.50;;;;;;;-3.95;58.09;100485.91;6023907;29;20386;-77
2021/12/26 00:57:05;;;;;;;1.20;1.20;;;;;;;-3.54;56.62;100484.28;6023847;29;20196;-77
2021/12/26 01:00:16;;;;;;;1.27;1.27;;;;;;;-3.55;57.05;100482.59;6025185;29;20204;-77
2021/12/26 01:03:22;;;;;;;1.20;1.20;;;;;;;-3.65;56.94;100497.97;6008420;29;20209;-77
2021/12/26 01:06:28;;;;;;;1.53;1.30;;;;;;;-3.84;57.27;100498.19;6008702;29;20207;-77
2021/12/26 01:09:33;;;;;;;1.30;1.20;;;;;;;-3.50;56.05;100512.47;6007747;29;20513;-77
2021/12/26 01:12:40;;;;;;;3.00;1.20;;;;;;;-3.63;56.36;100514.75;6007754;29;20244;-77
2021/12/26 01:15:47;;;;;;;1.07;1.07;;;;;;;-3.80;56.69;100513.81;6008191;29;20207;-77
2021/12/26 01:19:03;;;;;;;1.17;1.17;;;;;;;-3.74;56.68;100515.84;6008822;29;20212;-77
2021/12/26 01:22:10;;;;;;;0.80;0.80;;;;;;;-3.91;57.14;100518.59;6008035;29;20501;-77
2021/12/26 01:25:16;;;;;;;1.00;1.00;;;;;;;-3.90;57.09;100526.50;6022629;29;20207;-77
2021/12/26 01:28:23;;;;;;;1.50;1.50;;;;;;;-3.51;55.79;100513.44;6008978;29;20209;-77
2021/12/26 01:31:28;;;;;;;1.07;1.07;;;;;;;-3.27;55.12;100524.31;6011368;29;20527;-77
2021/12/26 01:34:43;;;;;;;1.70;1.17;;;;;;;-3.50;56.05;100529.41;6012299;29;20212;-77
2021/12/26 01:37:53;;;;;;;1.70;1.60;;;;;;;-3.27;54.70;100535.06;6012230;29;20208;-77
2021/12/26 01:41:24;;;;;;;1.47;1.37;;;;;;;-3.79;56.43;100544.16;6026601;29;20220;-77
2021/12/26 01:44:50;;;;;;;2.27;1.20;;;;;;;-3.49;55.62;100549.88;6021226;29;20212;-77
2021/12/26 01:47:59;;;;;;;1.37;1.30;;;;;;;-3.43;55.23;100562.66;6011990;29;20253;-77
2021/12/26 01:51:07;;;;;;;1.27;1.27;;;;;;;-3.75;56.26;100556.28;6026842;29;20231;-77
2021/12/26 01:54:16;;;;;;;1.30;1.30;;;;;;;-3.83;56.22;100558.88;6011298;29;20207;-77
2021/12/26 01:57:21;;;;;;;1.10;1.10;;;;;;;-3.79;56.37;100570.97;6026986;29;20199;-77
2021/12/26 02:00:27;;;;;;;3.23;1.03;;;;;;;-3.48;55.59;100575.72;6012236;29;20219;-77
2021/12/26 02:03:31;;;;;;;1.30;1.30;;;;;;;-3.63;56.42;100580.00;6027844;29;20207;-77
2021/12/26 02:06:36;;;;;;;0.93;0.93;;;;;;;-3.74;55.89;100584.75;6011028;29;20208;-77
2021/12/26 02:09:41;;;;;;;3.80;1.20;;;;;;;-3.66;56.29;100592.88;6010579;29;20499;-77
2021/12/26 02:12:49;;;;;;;1.10;1.10;;;;;;;-3.68;55.75;100605.63;6010704;29;20236;-77
2021/12/26 02:15:55;;;;;;;1.00;1.00;;;;;;;-3.57;56.00;100608.03;6010951;29;20343;-78
2021/12/26 02:19:00;;;;;;;1.50;1.40;;;;;;;-3.71;55.79;100600.56;6010659;29;20208;-77
2021/12/26 02:22:11;;;;;;;1.13;1.10;;;;;;;-3.74;55.85;100593.66;6011458;29;20212;-77
2021/12/26 02:25:29;;;;;;;1.17;1.17;;;;;;;-3.60;55.61;100597.63;6026740;29;20234;-77
2021/12/26 02:28:32;;;;;;;4.73;1.20;;;;;;;-3.64;55.82;100598.94;6011316;29;20208;-77
2021/12/26 02:31:36;;;;;;;2.00;1.30;;;;;;;-3.87;56.45;100608.50;6011243;29;20231;-77
2021/12/26 02:34:41;;;;;;;1.20;1.20;;;;;;;-3.74;55.98;100616.97;6010326;29;20255;-77
2021/12/26 02:37:46;;;;;;;1.07;1.07;;;;;;;-3.73;56.00;100610.59;6026554;29;20197;-77
2021/12/26 02:40:53;;;;;;;2.50;1.27;;;;;;;-3.74;55.35;100607.06;6025648;29;20484;-77
2021/12/26 02:43:58;;;;;;;2.43;1.10;;;;;;;-3.58;55.65;100622.47;6024994;29;20214;-77
2021/12/26 02:47:04;;;;;;;1.13;1.13;;;;;;;-3.62;55.68;100629.16;6010423;29;20495;-77
2021/12/26 02:50:12;;;;;;;1.07;1.07;;;;;;;-3.53;54.81;100634.41;6025799;29;20475;-77
2021/12/26 02:53:20;;;;;;;1.20;1.20;;;;;;;-3.78;55.73;100647.78;6025866;29;20223;-77
2021/12/26 02:56:25;;;;;;;1.07;1.07;;;;;;;-3.52;55.27;100643.31;6024823;29;20208;-77
2021/12/26 02:59:32;;;;;;;1.03;1.03;;;;;;;-3.16;54.46;100639.53;6009518;29;20215;-77
2021/12/26 03:02:40;;;;;;;0.93;0.93;;;;;;;-3.34;54.71;100662.91;6010806;29;20219;-77
2021/12/26 03:05:54;;;;;;;1.10;1.10;;;;;;;-3.35;54.91;100661.22;6024843;29;20219;-77
2021/12/26 03:09:00;;;;;;;1.00;1.00;;;;;;;-3.35;54.56;100666.56;6009921;29;20490;-77
2021/12/26 03:12:09;;;;;;;1.30;1.30;;;;;;;-3.40;54.34;100663.53;6025599;29;20256;-77
2021/12/26 03:15:13;;;;;;;1.30;1.30;;;;;;;-3.71;55.55;100675.69;6009740;29;20305;-77
2021/12/26 03:18:19;;;;;;;2.63;1.33;;;;;;;-3.45;54.58;100676.56;6010167;29;20207;-77
2021/12/26 03:21:24;;;;;;;1.10;1.10;;;;;;;-3.68;55.30;100675.38;6026487;29;20205;-77
2021/12/26 03:24:30;;;;;;;1.10;1.10;;;;;;;-3.45;54.35;100684.63;6009440;29;20207;-77
2021/12/26 03:27:34;;;;;;;3.20;1.10;;;;;;;-3.74;55.54;100682.22;6026221;29;20224;-77
2021/12/26 03:30:40;;;;;;;1.13;1.13;;;;;;;-4.01;56.15;100701.94;6009128;29;20514;-77
2021/12/26 03:33:44;;;;;;;1.37;1.37;;;;;;;-3.62;54.58;100707.81;6026195;29;20192;-77
2021/12/26 03:36:52;;;;;;;1.30;1.20;;;;;;;-3.66;55.20;100702.91;6009773;29;20207;-77
2021/12/26 03:40:01;;;;;;;2.13;1.10;;;;;;;-3.76;55.10;100720.91;6009018;29;20207;-77
2021/12/26 03:43:06;;;;;;;1.10;1.10;;;;;;;-3.79;55.03;100713.19;6010244;29;20211;-77
2021/12/26 03:46:16;;;;;;;1.00;1.00;;;;;;;-4.06;55.06;100717.63;6009526;29;20260;-77
2021/12/26 03:49:20;;;;;;;1.00;1.00;;;;;;;-3.71;55.36;100721.31;6009207;29;20212;-77
2021/12/26 03:52:25;;;;;;;1.10;1.10;;;;;;;-4.05;55.66;100721.97;6024898;29;20219;-77
2021/12/26 03:55:31;;;;;;;2.37;1.40;;;;;;;-3.76;55.13;100726.28;6008714;29;20210;-77
2021/12/26 03:58:35;;;;;;;3.30;1.20;;;;;;;-3.70;54.86;100725.69;6024248;29;20257;-77
2021/12/26 04:01:40;;;;;;;2.30;1.20;;;;;;;-3.37;53.96;100724.97;6009531;29;20218;-77
2021/12/26 04:04:44;;;;;;;0.93;0.93;;;;;;;-3.58;53.89;100737.88;6024526;29;20494;-77
2021/12/26 04:07:49;;;;;;;1.10;1.10;;;;;;;-3.53;54.29;100741.78;6009462;29;20245;-77
2021/12/26 04:10:55;;;;;;;0.90;0.90;;;;;;;-3.86;54.41;100738.94;6008476;29;20255;-77
2021/12/26 04:14:00;;;;;;;2.83;1.33;;;;;;;-3.90;54.69;100734.88;6024649;29;20271;-77
2021/12/26 04:17:05;;;;;;;3.97;1.10;;;;;;;-3.73;54.18;100742.09;6009204;29;20207;-77
2021/12/26 04:20:14;;;;;;;1.20;1.20;;;;;;;-3.93;54.36;100751.28;6009836;29;20195;-77
2021/12/26 04:23:19;;;;;;;6.70;1.20;;;;;;;-3.93;54.74;100756.66;6008647;29;20389;-77
2021/12/26 04:26:25;;;;;;;1.23;1.13;;;;;;;-3.85;53.92;100759.41;6008562;29;20263;-77
2021/12/26 04:29:30;;;;;;;1.93;1.07;;;;;;;-4.33;55.65;100754.31;6008430;29;20207;-77
2021/12/26 04:32:34;;;;;;;1.00;1.00;;;;;;;-4.13;55.26;100767.47;6009128;29;20236;-77
2021/12/26 04:35:39;;;;;;;1.27;1.27;;;;;;;-3.92;55.04;100769.06;6024052;29;20375;-77
2021/12/26 04:38:46;;;;;;;1.20;1.20;;;;;;;-4.14;55.27;100771.19;6008699;29;20223;-77
2021/12/26 04:41:52;;;;;;;2.37;1.47;;;;;;;-4.11;54.96;100770.88;6008619;29;20421;-77
2021/12/26 04:45:16;;;;;;;1.80;1.30;;;;;;;-4.02;54.52;100780.69;6025235;29;20199;-77
2021/12/26 04:48:41;;;;;;;1.30;1.30;;;;;;;-4.20;55.93;100779.81;6024384;29;20195;-77
2021/12/26 04:51:46;;;;;;;1.00;1.00;;;;;;;-4.57;56.69;100778.16;6023796;29;20251;-77
2021/12/26 04:54:50;;;;;;;0.97;0.90;;;;;;;-4.14;56.04;100781.06;6008854;29;20207;-77
2021/12/26 04:57:57;;;;;;;1.07;1.07;;;;;;;-4.09;55.74;100784.13;6008528;29;20207;-77
2021/12/26 05:01:02;;;;;;;4.33;1.10;;;;;;;-4.39;56.52;100781.75;6008305;29;20246;-77
2021/12/26 05:04:11;;;;;;;1.13;1.13;;;;;;;-4.42;57.32;100777.53;6026389;29;20206;-77
2021/12/26 05:07:17;;;;;;;1.00;1.00;;;;;;;-4.28;56.98;100785.06;6028085;29;20196;-77
2021/12/26 05:10:24;;;;;;;1.30;1.30;;;;;;;-4.29;56.23;100793.28;6027159;29;20218;-77
2021/12/26 05:13:30;;;;;;;1.00;1.00;;;;;;;-4.12;56.14;100805.88;6028185;29;20256;-77
2021/12/26 05:16:34;;;;;;;1.03;1.03;;;;;;;-4.37;56.47;100812.78;6028887;29;20200;-77
2021/12/26 05:19:40;;;;;;;1.07;1.07;;;;;;;-4.13;56.96;100805.03;6012022;29;20212;-77
2021/12/26 05:22:45;;;;;;;3.70;1.10;;;;;;;-4.16;56.27;100810.72;6028370;29;20196;-77
2021/12/26 05:25:50;;;;;;;1.50;1.17;;;;;;;-4.43;56.69;100813.34;6012472;29;20211;-77
2021/12/26 05:28:55;;;;;;;1.10;1.10;;;;;;;-4.59;57.77;100826.53;6011611;29;20247;-77
2021/12/26 05:32:00;;;;;;;1.10;1.10;;;;;;;-4.60;57.74;100819.50;6028792;29;20266;-77
2021/12/26 05:35:05;;;;;;;1.07;1.07;;;;;;;-4.49;57.50;100838.09;6011533;29;20210;-77
2021/12/26 05:38:12;;;;;;;1.20;1.20;;;;;;;-4.45;56.74;100831.44;6027224;29;20194;-77
2021/12/26 05:41:21;;;;;;;1.20;1.20;;;;;;;-4.39;56.93;100836.22;6012221;29;20211;-77
2021/12/26 05:44:39;;;;;;;1.40;1.30;;;;;;;-4.56;57.94;100828.06;6011859;29;20223;-77
2021/12/26 05:47:44;;;;;;;1.20;1.20;;;;;;;-4.42;56.86;100831.13;6027420;29;20267;-77
2021/12/26 05:50:49;;;;;;;1.40;1.30;;;;;;;-4.72;58.40;100834.06;6011557;29;20401;-77
2021/12/26 05:54:26;;;;;;;3.93;1.20;;;;;;;-4.55;57.28;100846.69;6020387;29;20235;-77
2021/12/26 05:57:31;;;;;;;1.00;1.00;;;;;;;-4.24;56.75;100850.81;6027393;29;20221;-77
2021/12/26 06:00:37;;;;;;;1.10;1.10;;;;;;;-4.35;56.55;100852.81;6011223;29;20214;-77
2021/12/26 06:03:42;;;;;;;1.10;1.10;;;;;;;-4.73;57.91;100848.44;6011033;29;20215;-77
2021/12/26 06:06:47;;;;;;;1.20;1.20;;;;;;;-4.72;57.62;100853.63;6025955;29;20218;-77
2021/12/26 06:09:53;;;;;;;2.90;1.20;;;;;;;-4.63;57.30;100865.31;6010695;29;20217;-77
2021/12/26 06:12:59;;;;;;;1.13;1.13;;;;;;;-4.88;57.69;100871.31;6010373;29;20429;-77
2021/12/26 06:16:06;;;;;;;1.50;1.40;;;;;;;-4.90;58.70;100867.94;6010052;29;20390;-77
2021/12/26 06:19:11;;;;;;;1.10;1.10;;;;;;;-4.60;57.34;100875.75;6010576;29;20400;-77
2021/12/26 06:22:34;;;;;;;2.80;1.20;;;;;;;-5.01;57.82;100870.75;6026952;29;20212;-77
2021/12/26 06:25:57;;;;;;;1.30;1.30;;;;;;;-4.71;57.41;100874.09;6026802;29;20226;-77
2021/12/26 06:29:19;;;;;;;1.10;1.10;;;;;;;-4.89;58.12;100874.94;6025429;29;20211;-77
2021/12/26 06:32:47;;;;;;;1.23;1.23;;;;;;;-4.65;57.63;100883.38;6027558;29;20237;-76
2021/12/26 06:36:24;;;;;;;1.00;1.00;;;;;;;-5.09;58.26;100889.34;6006327;29;20208;-78
2021/12/26 06:39:41;;;;;;;1.20;1.10;;;;;;;-4.90;57.99;100889.34;6026208;29;20195;-77
2021/12/26 06:43:06;;;;;;;3.70;1.10;;;;;;;-4.86;57.66;100890.75;6026238;29;20491;-77
2021/12/26 06:46:28;;;;;;;0.90;0.90;;;;;;;-4.82;58.34;100889.47;6025985;29;20482;-77
2021/12/26 06:49:53;;;;;;;1.00;1.00;;;;;;;-4.91;58.51;100898.38;6026344;29;20195;-77
2021/12/26 06:52:58;;;;;;;1.03;1.00;;;;;;;-5.02;58.77;100917.25;6027198;29;20271;-77
2021/12/26 06:56:02;;;;;;;1.10;1.10;;;;;;;-5.13;59.36;100904.00;6026764;29;20259;-77
2021/12/26 06:59:07;;;;;;;1.10;1.10;;;;;;;-4.67;57.76;100922.88;6027078;29;20196;-77
2021/12/26 07:02:11;;;;;;;1.40;1.33;;;;;;;-4.88;58.27;100911.47;6025989;29;20194;-77
2021/12/26 07:05:27;;;;;;;1.23;1.23;;;;;;;-5.19;59.05;100923.31;6009919;29;20221;-77
2021/12/26 07:08:48;;;;;;;1.20;1.20;;;;;;;-5.15;58.73;100927.38;6024758;29;20211;-77
2021/12/26 07:11:53;;;;;;;1.20;1.20;;;;;;;-5.05;58.62;100936.28;6009288;29;20243;-77
2021/12/26 07:15:16;;;;;;;1.20;1.20;;;;;;;-4.93;58.41;100932.47;6009671;29;20238;-77
2021/12/26 07:18:32;;;;;;;1.17;1.17;;;;;;;-5.06;57.92;100942.63;6024580;29;20210;-77
2021/12/26 07:21:40;;;;;;;1.00;1.00;;;;;;;-5.03;57.64;100947.72;6010150;29;20265;-77
2021/12/26 07:24:48;;;;;;;2.70;1.27;;;;;;;-4.95;57.81;100961.25;6009386;29;20282;-77
2021/12/26 07:27:53;;;;;;;1.17;1.17;;;;;;;-5.20;58.01;100956.41;6009120;29;20224;-77
2021/12/26 07:31:16;;;;;;;1.00;1.00;;;;;;;-5.19;58.75;100952.75;6026275;29;20268;-77
2021/12/26 07:34:25;;;;;;;1.10;1.10;;;;;;;-5.22;58.69;100947.66;6010225;29;20241;-77
2021/12/26 07:37:31;;;;;;;1.03;1.03;;;;;;;-5.35;59.02;100958.63;6009784;29;20210;-77
2021/12/26 07:40:36;;;;;;;1.33;1.33;;;;;;;-5.68;59.45;100957.16;6009722;29;20207;-77
2021/12/26 07:43:55;;;;;;;1.20;1.20;;;;;;;-5.06;58.32;100966.72;6008365;29;20222;-77
2021/12/26 07:47:18;;;;;;;1.30;1.30;;;;;;;-4.95;57.48;100956.72;6025452;29;20239;-77
2021/12/26 07:50:26;;;;;;;1.33;1.20;;;;;;;-5.12;57.77;100972.63;6024109;29;20392;-77
2021/12/26 07:54:00;;;;;;;1.50;1.50;;;;;;;-5.09;58.06;100975.03;6010174;29;20401;-77
2021/12/26 07:57:23;;;;;;;1.10;1.10;;;;;;;-5.12;57.11;100969.94;6024965;29;20262;-77
2021/12/26 08:00:45;;;;;;;1.10;1.10;;;;;;;-5.33;58.45;100978.94;6024436;29;20550;-77
2021/12/26 08:04:12;;;;;;;2.00;1.23;;;;;;;-5.21;58.09;100992.22;6009386;29;20215;-77
2021/12/26 08:07:45;;;;;;;1.53;1.40;;;;;;;-5.36;58.00;100979.19;6024632;29;20210;-77
2021/12/26 08:10:52;;;;;;;5.13;1.23;;;;;;;-5.33;58.89;100986.97;6008833;29;20240;-77
2021/12/26 08:13:56;;;;;;;1.43;1.43;;;;;;;-5.06;58.26;100986.31;6024504;29;20314;-77
2021/12/26 08:17:01;;;;;;;1.63;1.37;;;;;;;-5.08;57.66;100987.44;6025178;29;20202;-77
2021/12/26 08:20:07;;;;;;;1.10;1.10;;;;;;;-5.20;58.03;100991.22;6024235;29;20195;-77
2021/12/26 08:23:12;;;;;;;3.03;1.40;;;;;;;-5.06;57.75;100996.19;6025153;29;20273;-77
2021/12/26 08:26:18;;;;;;;1.67;1.23;;;;;;;-4.78;57.09;101006.06;6025373;29;20199;-76
2021/12/26 08:29:24;;;;;;;1.07;1.07;;;;;;;-4.98;58.05;101009.72;6024417;29;20537;-77
2021/12/26 08:32:30;;;;;;;1.43;1.43;;;;;;;-5.03;57.48;101003.94;6024841;29;20195;-77
2021/12/26 08:35:36;;;;;;;1.30;1.20;;;;;;;-4.89;57.03;101011.56;6025252;29;20223;-76
2021/12/26 08:38:40;;;;;;;1.30;1.30;;;;;;;-4.85;57.83;101004.94;6026146;29;20195;-77
2021/12/26 08:41:46;;;;;;;1.23;1.23;;;;;;;-4.77;57.79;101007.78;6029691;29;20195;-77
2021/12/26 08:44:52;;;;;;;1.10;1.10;;;;;;;-4.93;58.53;101008.34;6029751;29;20199;-77
2021/12/26 08:47:57;;;;;;;2.47;1.30;;;;;;;-4.97;58.43;101017.59;6028793;29;20482;-77
2021/12/26 08:51:01;;;;;;;1.40;1.40;;;;;;;-5.05;58.65;101019.31;6029858;29;20195;-77
2021/12/26 08:54:07;;;;;;;1.27;1.27;;;;;;;-4.94;59.21;101027.19;6029767;29;20265;-77
2021/12/26 08:57:15;;;;;;;1.20;1.20;;;;;;;-4.81;58.09;101022.44;6029626;29;20199;-77
2021/12/26 09:00:21;;;;;;;1.37;1.37;;;;;;;-4.69;58.40;101023.97;6029639;29;20195;-77
2021/12/26 09:03:25;;;;;;;1.30;1.20;;;;;;;-4.76;58.54;101031.75;6028301;29;20478;-76
2021/12/26 09:06:30;;;;;;;1.10;1.10;;;;;;;-4.74;58.43;101036.94;6029448;29;20198;-76
2021/12/26 09:09:35;;;;;;;1.23;1.23;;;;;;;-4.67;58.66;101040.78;6029324;29;20222;-77
2021/12/26 09:12:41;;;;;;;1.33;1.23;;;;;;;-4.68;58.15;101049.78;6029060;29;20302;-77
2021/12/26 09:15:46;;;;;;;1.63;1.60;;;;;;;-5.09;59.42;101050.00;6028905;29;20222;-77
2021/12/26 09:18:50;;;;;;;1.33;1.33;;;;;;;-4.86;58.67;101048.78;6028003;29;20393;-77
2021/12/26 09:21:55;;;;;;;1.13;1.13;;;;;;;-5.00;58.81;101055.38;6028463;29;20227;-77
2021/12/26 09:25:02;;;;;;;1.20;1.20;;;;;;;-4.99;59.30;101053.53;6028526;29;20261;-77
2021/12/26 09:28:09;;;;;;;1.50;1.40;;;;;;;-4.95;59.30;101058.50;6027680;29;20285;-77
2021/12/26 09:31:13;;;;;;;1.50;1.50;;;;;;;-5.13;59.00;101053.97;6027668;29;20193;-76
2021/12/26 09:34:18;;;;;;;1.30;1.30;;;;;;;-5.09;59.70;101050.00;6028883;29;20223;-77
2021/12/26 09:37:22;;;;;;;1.37;1.37;;;;;;;-4.80;59.08;101050.91;6028562;29;20239;-76
2021/12/26 09:40:26;;;;;;;1.13;1.07;;;;;;;-4.94;59.29;101059.34;6027525;29;20450;-76
2021/12/26 09:43:33;;;;;;;1.80;1.70;;;;;;;-5.12;59.28;101058.31;6028345;29;20235;-76
2021/12/26 09:46:37;;;;;;;1.40;1.40;;;;;;;-4.84;58.26;101054.84;6027069;29;20198;-76
2021/12/26 09:49:41;;;;;;;1.57;1.47;;;;;;;-4.81;58.46;101054.56;6028574;29;20195;-77
2021/12/26 09:52:48;;;;;;;1.17;1.17;;;;;;;-4.73;59.04;101057.41;6028718;29;20195;-77
2021/12/26 09:55:52;;;;;;;1.40;1.30;;;;;;;-4.85;60.13;101067.38;6027347;29;20253;-76
2021/12/26 09:59:00;;;;;;;1.17;1.17;;;;;;;-4.85;60.23;101066.56;6027363;29;20274;-77
2021/12/26 10:02:11;;;;;;;3.13;1.57;;;;;;;-4.62;59.96;101071.50;6027208;29;20202;-77
2021/12/26 10:05:24;;;;;;;1.30;1.30;;;;;;;-4.56;59.73;101072.78;6028458;29;20196;-77
2021/12/26 10:08:30;;;;;;;1.90;1.20;;;;;;;-4.76;60.98;101073.75;6031927;29;20207;-77
2021/12/26 10:11:37;;;;;;;1.33;1.30;;;;;;;-4.50;60.08;101064.19;6029273;29;20278;-76
2021/12/26 10:14:48;;;;;;;1.40;1.33;;;;;;;-4.38;59.92;101057.69;6028669;29;20249;-77
2021/12/26 10:17:52;;;;;;;1.40;1.40;;;;;;;-4.48;59.95;101062.22;6027771;29;20275;-76
2021/12/26 10:20:57;;;;;;;1.20;1.20;;;;;;;-4.49;60.06;101063.22;6026483;29;20195;-75
2021/12/26 10:24:04;;;;;;;1.70;1.40;;;;;;;-4.31;59.09;101052.63;6027465;29;20199;-76
2021/12/26 10:27:10;;;;;;;1.10;1.10;;;;;;;-4.16;58.96;101049.38;6027690;29;20237;-76
2021/12/26 10:30:17;;;;;;;1.97;1.87;;;;;;;-4.14;58.83;101042.03;6027723;29;20195;-76
2021/12/26 10:33:22;;;;;;;1.67;1.57;;;;;;;-4.09;59.15;101037.06;6026274;29;20385;-75
2021/12/26 10:36:28;;;;;;;1.10;1.10;;;;;;;-4.14;58.89;101052.75;6027149;29;20241;-76
2021/12/26 10:39:34;;;;;;;1.33;1.23;;;;;;;-4.30;58.65;101049.81;6010362;29;20213;-75
2021/12/26 10:42:44;;;;;;;2.70;1.47;;;;;;;-4.15;59.03;101061.78;6024839;29;20214;-76
2021/12/26 10:45:50;;;;;;;1.33;1.33;;;;;;;-4.22;58.85;101057.97;6025820;29;20397;-76
2021/12/26 10:48:54;;;;;;;1.80;1.43;;;;;;;-4.21;58.05;101058.84;6027191;29;20199;-75
2021/12/26 10:52:01;;;;;;;1.47;1.37;;;;;;;-4.07;58.18;101069.09;6026207;29;20192;-77
2021/12/26 10:55:08;;;;;;;1.47;1.47;;;;;;;-4.16;58.83;101068.16;6027886;29;20232;-79
2021/12/26 10:58:19;;;;;;;1.33;1.33;;;;;;;-4.28;58.35;101069.25;6027165;29;20259;-75
2021/12/26 11:01:25;;;;;;;1.40;1.40;;;;;;;-4.28;59.12;101074.63;6025541;29;20195;-76
2021/12/26 11:04:29;;;;;;;1.30;1.30;;;;;;;-4.49;59.96;101070.41;6026719;29;20244;-75
2021/12/26 11:07:48;;;;;;;5.10;1.10;;;;;;;-4.29;59.16;101072.94;6025543;29;20546;-76
2021/12/26 11:10:54;;;;;;;1.10;1.10;;;;;;;-4.25;59.12;101077.03;6025307;29;20242;-75
2021/12/26 11:14:04;;;;;;;1.63;1.53;;;;;;;-4.38;59.50;101073.78;6025348;29;20246;-76
2021/12/26 11:17:29;;;;;;;1.10;1.10;;;;;;;-4.17;58.62;101071.81;6024934;29;20499;-75
2021/12/26 11:20:36;;;;;;;1.30;1.30;;;;;;;-4.19;59.06;101072.94;6026039;29;20192;-76
2021/12/26 11:23:43;;;;;;;1.33;1.33;;;;;;;-4.20;58.66;101082.81;6025043;29;20508;-76
2021/12/26 11:26:47;;;;;;;1.43;1.20;;;;;;;-4.01;58.32;101082.81;6026327;29;20230;-75
2021/12/26 11:29:57;;;;;;;1.60;1.60;;;;;;;-3.97;58.50;101087.91;6026264;29;20192;-76
2021/12/26 11:33:04;;;;;;;1.37;1.27;;;;;;;-3.92;58.91;101093.69;6026362;29;20195;-76
2021/12/26 11:36:12;;;;;;;1.40;1.40;;;;;;;-3.91;58.44;101095.34;6025830;29;20226;-75
2021/12/26 11:39:25;;;;;;;1.73;1.73;;;;;;;-3.73;58.50;101090.94;6024212;29;20450;-75
2021/12/26 11:43:26;;;;;;;1.60;1.60;;;;;;;-3.88;58.72;101087.03;6025714;29;20258;-74
2021/12/26 11:47:08;;;;;;;1.90;1.80;;;;;;;-3.88;59.96;101073.59;6024944;29;20199;-77
2021/12/26 11:51:18;;;;;;;1.20;1.20;;;;;;;-3.90;59.61;101083.63;5978564;29;20216;-76
2021/12/26 11:54:59;;;;;;;1.83;1.80;;;;;;;-3.87;59.69;101072.63;5989335;29;20245;-75
2021/12/26 11:58:41;;;;;;;1.30;1.30;;;;;;;-3.73;59.44;101082.88;6009723;29;20238;-76
2021/12/26 12:01:48;;;;;;;1.80;1.53;;;;;;;-3.67;59.39;101074.28;5996283;29;20545;-75
2021/12/26 12:05:08;;;;;;;1.40;1.40;;;;;;;-3.74;59.07;101079.34;6025581;29;20262;-76
2021/12/26 12:08:18;;;;;;;1.17;1.17;;;;;;;-3.62;58.74;101082.72;6025712;29;20237;-76
2021/12/26 12:11:22;;;;;;;1.57;1.47;;;;;;;-3.53;58.35;101081.84;6026340;29;20218;-77
2021/12/26 12:14:45;;;;;;;1.60;1.50;;;;;;;-3.64;58.63;101077.50;6024864;29;20249;-75
2021/12/26 12:18:08;;;;;;;1.30;1.30;;;;;;;-3.44;58.23;101083.66;6024783;29;20580;-77
2021/12/26 12:21:17;;;;;;;1.07;1.07;;;;;;;-3.61;59.09;101100.50;6024800;29;20192;-76
2021/12/26 12:24:27;;;;;;;1.60;1.50;;;;;;;-3.59;58.87;101087.81;6024977;29;20268;-76
2021/12/26 12:27:34;;;;;;;1.60;1.60;;;;;;;-3.56;58.74;101082.13;6025340;29;20244;-77
2021/12/26 12:30:40;;;;;;;1.60;1.60;;;;;;;-3.68;59.00;101088.66;6025727;29;20191;-76
2021/12/26 12:33:47;;;;;;;1.50;1.50;;;;;;;-3.61;59.03;101095.13;6031373;29;20243;-77
2021/12/26 12:37:01;;;;;;;1.70;1.43;;;;;;;-3.63;58.97;101091.75;6026259;29;20226;-76
2021/12/26 12:40:13;;;;;;;1.30;1.30;;;;;;;-3.65;59.03;101089.22;6025906;29;20203;-77
2021/12/26 12:43:20;;;;;;;1.67;1.20;;;;;;;-3.62;59.79;101093.47;6026651;29;20196;-78
2021/12/26 12:46:25;;;;;;;1.90;1.80;;;;;;;-3.57;59.37;101108.16;6027535;29;20448;-78
2021/12/26 12:49:47;;;;;;;1.10;1.10;;;;;;;-3.72;59.93;101098.00;6027571;29;20195;-76
2021/12/26 12:52:58;;;;;;;1.37;1.37;;;;;;;-3.51;59.13;101082.53;6026074;29;20224;-77
2021/12/26 12:56:04;;;;;;;1.73;1.63;;;;;;;-3.66;59.92;101100.09;6026166;29;20420;-78
2021/12/26 12:59:35;;;;;;;2.60;1.73;;;;;;;-3.64;59.77;101092.78;6025400;29;20425;-77
2021/12/26 13:02:40;;;;;;;3.23;1.50;;;;;;;-3.57;59.35;101107.28;6025190;29;20299;-77
2021/12/26 13:05:45;;;;;;;1.90;1.77;;;;;;;-3.54;59.51;101113.19;6024596;29;20198;-76
2021/12/26 13:08:50;;;;;;;1.57;1.57;;;;;;;-3.82;59.22;101121.34;6023816;29;20207;-77
2021/12/26 13:12:01;;;;;;;1.90;1.90;;;;;;;-3.86;59.60;101122.59;6023855;29;20195;-77
2021/12/26 13:15:06;;;;;;;1.70;1.70;;;;;;;-3.91;59.92;101119.50;6025619;29;20192;-77
2021/12/26 13:18:19;;;;;;;1.93;1.83;;;;;;;-4.12;60.14;101120.50;6026248;29;20227;-77
2021/12/26 13:21:27;;;;;;;1.70;1.70;;;;;;;-3.98;60.02;101123.75;6027940;29;20196;-77
2021/12/26 13:24:32;;;;;;;2.90;1.80;;;;;;;-4.08;59.85;101119.22;6025846;29;20192;-75
2021/12/26 13:27:38;;;;;;;1.67;1.43;;;;;;;-4.06;59.76;101111.91;6027842;29;20226;-74
2021/12/26 13:30:44;;;;;;;2.47;1.53;;;;;;;-4.11;59.99;101113.31;6027938;29;20297;-75
2021/12/26 13:33:53;;;;;;;1.27;1.27;;;;;;;-4.11;59.53;101114.16;6027521;29;20191;-77
2021/12/26 13:37:01;;;;;;;4.63;1.70;;;;;;;-3.97;58.76;101098.63;6028571;29;20228;-76
2021/12/26 13:40:10;;;;;;;2.70;1.93;;;;;;;-4.17;59.62;101097.78;6027770;29;20195;-75
2021/12/26 13:43:27;;;;;;;1.47;1.47;;;;;;;-4.09;58.74;101101.44;6028694;29;20196;-76
2021/12/26 13:46:35;;;;;;;1.20;1.20;;;;;;;-4.36;59.73;101098.59;6028475;29;20223;-76
2021/12/26 13:49:40;;;;;;;3.67;1.37;;;;;;;-4.01;58.64;101104.28;6027815;29;20259;-76
2021/12/26 13:52:45;;;;;;;3.10;1.50;;;;;;;-4.02;58.75;101113.28;6028310;29;20211;-77
2021/12/26 13:55:53;;;;;;;3.63;1.63;;;;;;;-4.08;58.55;101102.31;6027622;29;20206;-76
2021/12/26 13:58:59;;;;;;;1.70;1.60;;;;;;;-4.01;58.71;101120.38;6027927;29;20223;-75
2021/12/26 14:02:06;;;;;;;1.40;1.33;;;;;;;-4.10;57.91;101110.47;6027488;29;20262;-75
2021/12/26 14:05:13;;;;;;;1.20;1.20;;;;;;;-4.16;58.41;101119.09;6026745;29;20364;-75
2021/12/26 14:08:19;;;;;;;1.60;1.60;;;;;;;-4.09;57.84;101117.53;6027995;29;20195;-75
2021/12/26 14:11:24;;;;;;;2.70;1.73;;;;;;;-4.32;58.80;101118.81;6027921;29;20200;-75
2021/12/26 14:14:35;;;;;;;1.37;1.37;;;;;;;-4.29;58.66;101120.34;6026337;29;20337;-76
2021/12/26 14:17:50;;;;;;;1.83;1.73;;;;;;;-4.47;58.54;101122.88;6026816;29;20286;-76
2021/12/26 14:20:58;;;;;;;1.77;1.77;;;;;;;-4.58;58.44;101124.84;6027874;29;20195;-75
2021/12/26 14:24:02;;;;;;;1.67;1.67;;;;;;;-4.61;59.28;101134.00;6027037;29;20198;-75
2021/12/26 14:27:08;;;;;;;1.40;1.40;;;;;;;-4.58;58.94;101136.41;6027322;29;20252;-74
2021/12/26 14:30:15;;;;;;;1.67;1.67;;;;;;;-4.65;58.81;101138.81;6026509;29;20491;-75
2021/12/26 14:33:19;;;;;;;1.67;1.63;;;;;;;-4.71;59.17;101141.16;6026121;29;20415;-75
2021/12/26 14:36:23;;;;;;;2.00;1.70;;;;;;;-4.64;59.35;101131.59;6025283;29;20419;-75
2021/12/26 14:39:32;;;;;;;1.47;1.47;;;;;;;-4.49;58.33;101146.31;6026204;29;20445;-75